createdAt,value
2022-08-20T00:01:01.798Z,0.00
2022-08-20T00:02:03.246Z,0.00
2022-08-20T00:03:06.469Z,0.00
2022-08-20T00:04:09.549Z,0.00
2022-08-20T00:05:13.964Z,0.00
2022-08-20T00:06:17.371Z,0.50
2022-08-20T00:07:20.632Z,0.25
2022-08-20T00:08:23.815Z,0.00
2022-08-20T00:09:27.406Z,0.00
2022-08-20T00:10:31.715Z,0.00
2022-08-20T00:11:34.996Z,0.00
2022-08-20T00:12:38.384Z,0.50
2022-08-20T00:13:41.658Z,0.00
2022-08-20T00:14:44.849Z,0.00
2022-08-20T00:15:47.991Z,0.00
2022-08-20T00:16:51.215Z,0.00
2022-08-20T00:17:54.646Z,0.00
2022-08-20T00:18:57.988Z,0.00
2022-08-20T00:20:01.201Z,0.00
2022-08-20T00:21:04.573Z,0.00
2022-08-20T00:22:07.842Z,0.50
2022-08-20T00:23:11.126Z,0.00
2022-08-20T00:24:14.306Z,0.00
2022-08-20T00:25:17.697Z,0.50
2022-08-20T00:26:20.976Z,0.50
2022-08-20T00:27:24.362Z,0.00
2022-08-20T00:28:27.653Z,0.00
2022-08-20T00:29:30.829Z,0.00
2022-08-20T00:30:33.938Z,1.00
2022-08-20T00:31:37.178Z,1.40
2022-08-20T00:32:41.501Z,0.00
2022-08-20T00:33:44.682Z,0.00
2022-08-20T00:34:47.968Z,0.25
2022-08-20T00:35:51.566Z,0.00
2022-08-20T00:36:54.961Z,0.50
2022-08-20T00:38:00.740Z,0.25
2022-08-20T00:39:02.845Z,0.00
2022-08-20T00:40:06.456Z,0.00
2022-08-20T00:41:11.051Z,0.00
2022-08-20T00:42:14.438Z,0.00
2022-08-20T00:43:18.029Z,0.00
2022-08-20T00:44:21.521Z,0.00
2022-08-20T00:45:25.007Z,0.00
2022-08-20T00:46:31.926Z,0.00
2022-08-20T00:47:32.903Z,0.00
2022-08-20T00:48:36.131Z,0.00
2022-08-20T00:49:39.484Z,0.00
2022-08-20T00:50:42.761Z,0.00
2022-08-20T00:51:46.253Z,0.00
2022-08-20T00:52:50.137Z,0.00
2022-08-20T00:53:53.838Z,0.50
2022-08-20T00:54:57.333Z,0.25
2022-08-20T00:56:00.721Z,0.00
2022-08-20T00:57:04.105Z,0.50
2022-08-20T00:58:07.671Z,0.00
2022-08-20T00:59:11.275Z,0.00
2022-08-20T01:00:15.286Z,0.00
2022-08-20T01:01:18.794Z,0.00
2022-08-20T01:02:21.836Z,0.00
2022-08-20T01:03:25.024Z,0.00
2022-08-20T01:04:28.154Z,0.60
2022-08-20T01:05:31.709Z,0.50
2022-08-20T01:06:34.889Z,0.00
2022-08-20T01:07:39.404Z,0.00
2022-08-20T01:08:42.688Z,0.00
2022-08-20T01:09:58.331Z,0.00
2022-08-20T01:10:50.392Z,0.00
2022-08-20T01:11:53.578Z,1.00
2022-08-20T01:12:59.398Z,1.00
2022-08-20T01:14:01.046Z,0.50
2022-08-20T01:15:04.241Z,0.50
2022-08-20T01:16:07.620Z,0.25
2022-08-20T01:17:10.779Z,0.50
2022-08-20T01:18:15.374Z,0.50
2022-08-20T01:19:30.188Z,1.00
2022-08-20T01:20:23.013Z,0.25
2022-08-20T01:21:26.469Z,0.00
2022-08-20T01:22:29.581Z,0.50
2022-08-20T01:23:32.964Z,0.50
2022-08-20T01:24:36.251Z,0.00
2022-08-20T01:25:39.753Z,0.00
2022-08-20T01:26:43.040Z,0.00
2022-08-20T01:27:46.822Z,0.00
2022-08-20T01:28:51.437Z,0.00
2022-08-20T01:29:54.929Z,0.50
2022-08-20T01:30:58.333Z,0.50
2022-08-20T01:32:01.802Z,0.50
2022-08-20T01:33:05.306Z,0.50
2022-08-20T01:34:08.886Z,0.25
2022-08-20T01:42:21.394Z,0.00
2022-08-20T01:43:24.719Z,0.50
2022-08-20T01:44:28.878Z,0.00
2022-08-20T01:45:33.540Z,0.00
2022-08-20T01:46:36.922Z,0.00
2022-08-20T01:47:40.994Z,0.00
2022-08-20T01:48:45.644Z,0.00
2022-08-20T01:49:49.239Z,0.00
2022-08-20T01:50:52.720Z,0.00
2022-08-20T01:51:56.112Z,0.00
2022-08-20T01:52:59.599Z,0.00
2022-08-20T01:54:03.085Z,0.00
2022-08-20T01:55:06.454Z,0.25
2022-08-20T01:56:09.857Z,0.50
2022-08-20T01:57:13.249Z,0.50
2022-08-20T01:58:16.539Z,0.00
2022-08-20T01:59:20.022Z,0.50
2022-08-20T02:00:23.306Z,0.50
2022-08-20T02:01:26.918Z,0.00
2022-08-20T02:02:30.033Z,0.00
2022-08-20T02:03:38.042Z,0.50
2022-08-20T02:04:37.773Z,0.50
2022-08-20T02:05:41.055Z,0.50
2022-08-20T02:06:56.664Z,0.25
2022-08-20T02:07:52.457Z,0.00
2022-08-20T02:08:55.925Z,0.00
2022-08-20T02:09:59.419Z,0.00
2022-08-20T02:11:02.770Z,0.00
2022-08-20T02:12:06.190Z,0.00
2022-08-20T02:13:09.657Z,0.00
2022-08-20T02:14:12.861Z,0.00
2022-08-20T02:15:16.049Z,0.50
2022-08-20T02:16:20.350Z,0.50
2022-08-20T02:17:23.532Z,0.50
2022-08-20T02:18:26.677Z,0.00
2022-08-20T02:19:29.801Z,0.00
2022-08-20T02:20:33.080Z,0.00
2022-08-20T02:21:36.259Z,0.00
2022-08-20T02:22:39.454Z,0.00
2022-08-20T02:23:43.851Z,0.00
2022-08-20T02:24:46.994Z,0.25
2022-08-20T02:25:50.216Z,0.00
2022-08-20T02:26:53.400Z,0.00
2022-08-20T02:27:57.078Z,0.00
2022-08-20T02:29:01.266Z,0.00
2022-08-20T02:30:04.589Z,1.00
2022-08-20T02:31:08.070Z,1.00
2022-08-20T02:32:32.109Z,0.50
2022-08-20T02:33:15.828Z,0.50
2022-08-20T02:34:22.724Z,1.00
2022-08-20T02:35:24.291Z,1.00
2022-08-20T02:36:27.561Z,1.00
2022-08-20T02:37:31.055Z,1.00
2022-08-20T02:38:34.338Z,2.00
2022-08-20T02:39:37.786Z,1.50
2022-08-20T02:40:41.110Z,0.00
2022-08-20T02:41:44.394Z,0.00
2022-08-20T02:42:47.883Z,0.00
2022-08-20T02:43:51.163Z,0.00
2022-08-20T02:44:54.658Z,0.00
2022-08-20T02:45:58.251Z,0.50
2022-08-20T02:47:01.838Z,0.25
2022-08-20T02:48:05.341Z,0.00
2022-08-20T02:49:08.824Z,0.50
2022-08-20T02:50:12.201Z,0.25
2022-08-20T02:51:15.895Z,0.00
2022-08-20T02:52:19.284Z,0.00
2022-08-20T02:53:22.669Z,0.00
2022-08-20T02:54:25.749Z,0.00
2022-08-20T02:55:29.140Z,0.00
2022-08-20T02:56:32.317Z,0.50
2022-08-20T02:57:35.604Z,1.00
2022-08-20T02:58:38.786Z,0.50
2022-08-20T02:59:41.922Z,0.00
2022-08-20T03:00:45.249Z,0.00
2022-08-20T03:02:00.554Z,0.00
2022-08-20T03:02:52.841Z,0.00
2022-08-20T03:03:56.139Z,0.00
2022-08-20T03:04:59.310Z,0.00
2022-08-20T03:06:02.495Z,0.00
2022-08-20T03:07:05.775Z,0.00
2022-08-20T03:08:09.056Z,0.00
2022-08-20T03:09:12.340Z,0.00
2022-08-20T03:10:15.614Z,0.00
2022-08-20T03:11:18.911Z,0.00
2022-08-20T03:12:22.302Z,0.25
2022-08-20T03:13:25.502Z,0.50
2022-08-20T03:14:28.768Z,0.75
2022-08-20T03:15:31.944Z,0.00
2022-08-20T03:16:35.138Z,0.50
2022-08-20T03:17:38.312Z,0.50
2022-08-20T03:18:42.008Z,1.00
2022-08-20T03:19:45.187Z,1.00
2022-08-20T03:20:52.152Z,0.50
2022-08-20T03:21:52.777Z,0.00
2022-08-20T03:22:56.061Z,0.50
2022-08-20T03:23:59.240Z,0.25
2022-08-20T03:25:02.425Z,0.00
2022-08-20T03:26:05.713Z,0.00
2022-08-20T03:27:09.194Z,0.00
2022-08-20T03:28:12.484Z,0.00
2022-08-20T03:29:15.762Z,0.50
2022-08-20T03:30:18.937Z,1.00
2022-08-20T03:31:22.010Z,0.00
2022-08-20T03:32:25.206Z,0.50
2022-08-20T03:33:29.425Z,0.50
2022-08-20T03:34:32.451Z,0.50
2022-08-20T03:35:35.483Z,0.00
2022-08-20T03:36:38.755Z,0.00
2022-08-20T03:37:43.611Z,0.00
2022-08-20T03:38:46.166Z,0.00
2022-08-20T03:39:49.260Z,0.00
2022-08-20T03:40:52.408Z,0.50
2022-08-20T03:41:55.464Z,0.75
2022-08-20T03:42:58.668Z,0.00
2022-08-20T03:44:01.849Z,0.50
2022-08-20T03:45:05.025Z,0.50
2022-08-20T03:46:22.955Z,0.25
2022-08-20T03:47:12.630Z,0.50
2022-08-20T03:48:15.810Z,0.40
2022-08-20T03:49:19.084Z,0.00
2022-08-20T03:50:22.950Z,0.00
2022-08-20T03:51:26.546Z,0.00
2022-08-20T03:52:29.657Z,0.00
2022-08-20T03:53:32.845Z,0.00
2022-08-20T03:54:36.128Z,0.00
2022-08-20T03:55:39.306Z,0.50
2022-08-20T03:56:42.690Z,1.00
2022-08-20T03:57:46.177Z,1.00
2022-08-20T03:58:49.473Z,1.00
2022-08-20T03:59:56.878Z,0.50
2022-08-20T04:00:57.590Z,1.00
2022-08-20T04:02:01.102Z,1.00
2022-08-20T04:03:04.548Z,1.00
2022-08-20T04:04:12.400Z,0.00
2022-08-20T04:05:12.344Z,0.00
2022-08-20T04:06:15.756Z,0.00
2022-08-20T04:07:18.999Z,0.00
2022-08-20T04:08:22.403Z,0.00
2022-08-20T04:09:25.790Z,0.00
2022-08-20T04:10:28.972Z,0.00
2022-08-20T04:11:32.320Z,0.00
2022-08-20T04:12:35.977Z,0.00
2022-08-20T04:13:43.358Z,0.00
2022-08-20T04:14:44.668Z,0.00
2022-08-20T04:15:49.070Z,0.00
2022-08-20T04:16:53.693Z,0.00
2022-08-20T04:17:57.284Z,0.00
2022-08-20T04:19:02.260Z,0.00
2022-08-20T04:20:05.251Z,0.00
2022-08-20T04:21:08.775Z,0.00
2022-08-20T04:22:12.366Z,0.00
2022-08-20T04:23:15.765Z,0.50
2022-08-20T04:24:21.983Z,0.25
2022-08-20T04:25:23.993Z,0.00
2022-08-20T04:26:27.142Z,0.00
2022-08-20T04:27:30.523Z,0.00
2022-08-20T04:28:33.713Z,0.00
2022-08-20T04:29:36.991Z,0.50
2022-08-20T04:30:40.177Z,0.00
2022-08-20T04:31:44.482Z,0.25
2022-08-20T04:32:47.971Z,0.00
2022-08-20T04:33:51.357Z,0.00
2022-08-20T04:34:54.849Z,0.00
2022-08-20T04:35:58.439Z,0.00
2022-08-20T04:37:01.828Z,0.50
2022-08-20T04:38:05.191Z,0.50
2022-08-20T04:39:08.703Z,0.00
2022-08-20T04:40:12.152Z,0.00
2022-08-20T04:41:22.893Z,0.00
2022-08-20T04:42:19.985Z,0.00
2022-08-20T04:43:23.476Z,0.00
2022-08-20T04:44:27.783Z,0.00
2022-08-20T04:45:31.171Z,0.00
2022-08-20T04:46:34.559Z,0.00
2022-08-20T04:47:37.738Z,0.00
2022-08-20T04:48:40.919Z,0.00
2022-08-20T04:49:44.208Z,0.00
2022-08-20T04:50:47.651Z,0.00
2022-08-20T04:51:51.183Z,0.00
2022-08-20T04:52:54.779Z,0.00
2022-08-20T04:53:58.271Z,0.00
2022-08-20T04:55:01.658Z,0.50
2022-08-20T04:56:05.140Z,1.00
2022-08-20T04:57:08.629Z,1.00
2022-08-20T04:58:12.837Z,0.25
2022-08-20T04:59:16.426Z,0.50
2022-08-20T05:00:19.828Z,0.00
2022-08-20T05:01:23.603Z,0.00
2022-08-20T05:02:26.894Z,0.25
2022-08-20T05:03:30.385Z,0.00
2022-08-20T05:04:33.418Z,0.00
2022-08-20T05:05:36.855Z,0.50
2022-08-20T05:06:39.908Z,1.00
2022-08-20T05:07:42.916Z,0.00
2022-08-20T05:08:46.192Z,0.00
2022-08-20T05:09:49.677Z,0.00
2022-08-20T05:10:54.121Z,0.00
2022-08-20T05:11:57.785Z,0.00
2022-08-20T05:13:01.091Z,0.00
2022-08-20T05:14:04.453Z,0.00
2022-08-20T05:15:07.870Z,0.00
2022-08-20T05:16:11.240Z,0.00
2022-08-20T05:17:14.823Z,0.00
2022-08-20T05:18:18.310Z,0.00
2022-08-20T05:19:21.799Z,0.00
2022-08-20T05:20:25.286Z,0.50
2022-08-20T05:21:28.570Z,0.75
2022-08-20T05:22:31.853Z,0.00
2022-08-20T05:23:35.134Z,1.00
2022-08-20T05:24:38.421Z,0.50
2022-08-20T05:25:41.704Z,0.75
2022-08-20T05:26:44.893Z,0.75
2022-08-20T05:27:48.069Z,1.00
2022-08-20T05:28:58.632Z,0.25
2022-08-20T05:29:55.600Z,0.50
2022-08-20T05:30:59.694Z,0.50
2022-08-20T05:32:02.957Z,1.50
2022-08-20T05:33:06.244Z,1.50
2022-08-20T05:34:10.061Z,1.00
2022-08-20T05:35:13.825Z,0.00
2022-08-20T05:36:16.926Z,0.00
2022-08-20T05:37:20.705Z,0.00
2022-08-20T05:38:24.296Z,0.00
2022-08-20T05:39:27.433Z,0.00
2022-08-20T05:40:30.659Z,0.00
2022-08-20T05:41:33.692Z,0.00
2022-08-20T05:42:36.919Z,0.50
2022-08-20T05:43:40.303Z,0.50
2022-08-20T05:44:43.599Z,0.25
2022-08-20T05:45:46.777Z,0.00
2022-08-20T05:46:49.967Z,0.50
2022-08-20T05:47:56.459Z,0.50
2022-08-20T05:48:59.810Z,0.00
2022-08-20T05:50:01.857Z,0.25
2022-08-20T05:51:05.135Z,1.00
2022-08-20T05:52:08.316Z,1.00
2022-08-20T05:53:11.507Z,1.00
2022-08-20T05:54:14.686Z,0.50
2022-08-20T05:55:17.864Z,0.50
2022-08-20T05:56:26.640Z,1.00
2022-08-20T05:57:25.459Z,1.00
2022-08-20T05:58:28.634Z,1.00
2022-08-20T05:59:31.921Z,1.00
2022-08-20T06:00:35.107Z,1.00
2022-08-20T06:01:38.382Z,1.00
2022-08-20T06:02:41.575Z,1.00
2022-08-20T06:03:44.855Z,1.00
2022-08-20T06:04:48.134Z,1.00
2022-08-20T06:05:52.445Z,1.00
2022-08-20T06:06:55.629Z,1.00
2022-08-20T06:08:07.343Z,1.25
2022-08-20T06:09:03.215Z,1.50
2022-08-20T06:10:06.504Z,1.50
2022-08-20T06:11:09.698Z,1.00
2022-08-20T06:12:12.973Z,1.00
2022-08-20T06:13:16.241Z,1.00
2022-08-20T06:14:19.436Z,1.60
2022-08-20T06:15:22.721Z,1.25
2022-08-20T06:16:28.952Z,1.00
2022-08-20T06:17:39.278Z,1.00
2022-08-20T06:18:35.703Z,1.00
2022-08-20T06:19:38.930Z,1.25
2022-08-20T06:20:42.209Z,1.25
2022-08-20T06:21:45.497Z,1.00
2022-08-20T06:22:48.793Z,1.50
2022-08-20T06:23:57.877Z,1.50
2022-08-20T06:24:56.445Z,1.25
2022-08-20T06:25:59.758Z,1.25
2022-08-20T06:27:03.245Z,1.00
2022-08-20T06:28:06.742Z,1.00
2022-08-20T06:29:10.035Z,1.00
2022-08-20T06:30:13.408Z,1.50
2022-08-20T06:31:16.906Z,2.00
2022-08-20T06:32:21.237Z,1.50
2022-08-20T06:33:24.900Z,1.50
2022-08-20T06:34:28.416Z,1.50
2022-08-20T06:35:32.597Z,1.00
2022-08-20T06:36:35.789Z,1.00
2022-08-20T06:37:38.960Z,1.00
2022-08-20T06:38:42.241Z,1.00
2022-08-20T06:39:45.783Z,1.25
2022-08-20T06:40:49.014Z,1.25
2022-08-20T06:41:52.299Z,1.00
2022-08-20T06:42:56.296Z,1.00
2022-08-20T06:43:59.583Z,1.00
2022-08-20T06:45:02.766Z,1.00
2022-08-20T06:46:06.052Z,1.50
2022-08-20T06:47:09.333Z,1.50
2022-08-20T06:48:15.094Z,1.00
2022-08-20T06:49:16.938Z,1.00
2022-08-20T06:50:20.073Z,1.00
2022-08-20T06:51:23.497Z,1.75
2022-08-20T06:52:42.815Z,1.00
2022-08-20T06:53:30.996Z,1.00
2022-08-20T06:54:34.166Z,1.00
2022-08-20T06:55:37.659Z,1.50
2022-08-20T06:56:40.837Z,1.50
2022-08-20T06:57:44.131Z,1.00
2022-08-20T06:58:47.279Z,1.00
2022-08-20T06:59:54.267Z,1.00
2022-08-20T07:00:55.107Z,1.50
2022-08-20T07:01:58.355Z,2.00
2022-08-20T07:03:01.646Z,1.00
2022-08-20T07:04:05.161Z,1.25
2022-08-20T07:05:08.654Z,1.50
2022-08-20T07:06:12.039Z,2.00
2022-08-20T07:07:15.522Z,2.00
2022-08-20T07:08:18.910Z,1.50
2022-08-20T07:09:22.400Z,1.50
2022-08-20T07:10:25.994Z,1.50
2022-08-20T07:11:29.383Z,2.00
2022-08-20T07:12:32.458Z,1.00
2022-08-20T07:13:35.844Z,1.50
2022-08-20T07:14:39.051Z,2.00
2022-08-20T07:15:42.206Z,2.00
2022-08-20T07:16:45.417Z,2.50
2022-08-20T07:17:48.670Z,3.00
2022-08-20T07:18:52.061Z,2.00
2022-08-20T07:19:55.546Z,1.50
2022-08-20T07:20:58.950Z,1.50
2022-08-20T07:22:02.337Z,1.50
2022-08-20T07:23:06.912Z,2.00
2022-08-20T07:24:10.330Z,2.00
2022-08-20T07:25:13.618Z,2.00
2022-08-20T07:26:16.849Z,2.00
2022-08-20T07:27:20.175Z,2.00
2022-08-20T07:28:23.581Z,2.00
2022-08-20T07:29:26.950Z,2.00
2022-08-20T07:30:30.029Z,2.60
2022-08-20T07:31:35.016Z,3.50
2022-08-20T07:32:39.477Z,2.50
2022-08-20T07:33:42.759Z,3.50
2022-08-20T07:34:47.161Z,3.00
2022-08-20T07:35:51.772Z,2.50
2022-08-20T07:36:55.162Z,2.25
2022-08-20T07:37:58.757Z,2.50
2022-08-20T07:39:05.742Z,2.00
2022-08-20T07:40:06.821Z,1.50
2022-08-20T07:41:10.347Z,1.00
2022-08-20T07:42:13.848Z,1.00
2022-08-20T07:43:17.324Z,2.00
2022-08-20T07:44:20.718Z,2.00
2022-08-20T07:45:24.101Z,2.00
2022-08-20T07:46:31.123Z,2.00
2022-08-20T07:47:31.997Z,1.50
2022-08-20T07:48:35.176Z,1.50
2022-08-20T07:49:38.565Z,2.00
2022-08-20T07:50:43.031Z,1.25
2022-08-20T07:51:46.260Z,1.00
2022-08-20T07:52:49.894Z,0.75
2022-08-20T07:53:53.340Z,1.50
2022-08-20T07:54:56.726Z,2.00
2022-08-20T07:56:00.116Z,1.40
2022-08-20T07:57:03.496Z,1.50
2022-08-20T07:58:07.296Z,1.50
2022-08-20T07:59:10.786Z,1.00
2022-08-20T08:00:14.160Z,1.00
2022-08-20T08:01:17.526Z,0.75
2022-08-20T08:02:21.047Z,0.50
2022-08-20T08:03:40.881Z,1.00
2022-08-20T08:04:28.655Z,0.25
2022-08-20T08:05:32.128Z,0.00
2022-08-20T08:06:35.262Z,0.50
2022-08-20T08:07:38.499Z,0.25
2022-08-20T08:08:42.187Z,0.00
2022-08-20T08:09:45.365Z,0.00
2022-08-20T08:10:48.649Z,0.00
2022-08-20T08:11:51.945Z,0.00
2022-08-20T08:12:55.201Z,0.00
2022-08-20T08:13:58.297Z,0.00
2022-08-20T08:15:01.331Z,0.50
2022-08-20T08:16:04.356Z,1.00
2022-08-20T08:17:07.496Z,1.00
2022-08-20T08:18:10.626Z,0.75
2022-08-20T08:19:14.004Z,0.00
2022-08-20T08:20:17.349Z,0.50
2022-08-20T08:21:20.469Z,1.00
2022-08-20T08:22:23.651Z,1.00
2022-08-20T08:23:32.024Z,0.40
2022-08-20T08:24:31.150Z,0.00
2022-08-20T08:25:34.237Z,1.20
2022-08-20T08:26:37.302Z,1.50
2022-08-20T08:27:40.589Z,1.25
2022-08-20T08:28:43.870Z,1.25
2022-08-20T08:29:47.062Z,0.50
2022-08-20T08:30:50.435Z,0.25
2022-08-20T08:31:53.720Z,0.00
2022-08-20T08:32:57.017Z,0.00
2022-08-20T08:34:00.289Z,0.50
2022-08-20T08:35:03.481Z,0.00
2022-08-20T08:36:06.753Z,0.00
2022-08-20T08:37:10.051Z,0.00
2022-08-20T08:38:14.394Z,0.00
2022-08-20T08:39:17.630Z,0.00
2022-08-20T08:40:21.081Z,0.00
2022-08-20T08:41:24.341Z,0.17
2022-08-20T08:42:27.597Z,0.00
2022-08-20T08:43:31.798Z,0.50
2022-08-20T08:44:35.078Z,0.00
2022-08-20T08:45:38.291Z,0.00
2022-08-20T08:46:41.350Z,0.25
2022-08-20T08:47:44.752Z,1.00
2022-08-20T08:48:47.907Z,0.50
2022-08-20T08:49:51.189Z,0.00
2022-08-20T08:50:54.849Z,0.50
2022-08-20T08:51:58.370Z,0.75
2022-08-20T08:53:01.962Z,0.50
2022-08-20T08:54:07.192Z,0.00
2022-08-20T08:55:09.456Z,0.00
2022-08-20T08:56:12.635Z,1.00
2022-08-20T08:57:15.817Z,1.00
2022-08-20T08:58:19.109Z,1.00
2022-08-20T08:59:22.390Z,1.00
2022-08-20T09:00:25.540Z,0.50
2022-08-20T09:01:53.887Z,0.50
2022-08-20T09:02:33.363Z,1.00
2022-08-20T09:03:36.753Z,0.25
2022-08-20T09:04:39.936Z,0.00
2022-08-20T09:05:43.081Z,0.50
2022-08-20T09:06:48.406Z,1.00
2022-08-20T09:07:50.412Z,1.00
2022-08-20T09:08:54.718Z,1.00
2022-08-20T09:09:57.803Z,1.00
2022-08-20T09:11:00.875Z,1.00
2022-08-20T09:12:04.155Z,1.00
2022-08-20T09:13:07.187Z,1.00
2022-08-20T09:14:10.314Z,1.00
2022-08-20T09:15:13.697Z,0.75
2022-08-20T09:16:18.212Z,1.00
2022-08-20T09:17:21.390Z,0.50
2022-08-20T09:18:24.677Z,1.00
2022-08-20T09:19:27.760Z,1.00
2022-08-20T09:20:30.792Z,1.25
2022-08-20T09:21:34.122Z,0.25
2022-08-20T09:22:37.401Z,0.50
2022-08-20T09:23:40.626Z,1.50
2022-08-20T09:24:43.766Z,1.50
2022-08-20T09:25:46.956Z,1.25
2022-08-20T09:26:50.240Z,2.00
2022-08-20T09:27:53.514Z,1.50
2022-08-20T09:28:57.917Z,2.25
2022-08-20T09:30:02.133Z,2.50
2022-08-20T09:31:05.983Z,1.50
2022-08-20T09:32:09.838Z,1.50
2022-08-20T09:33:13.123Z,2.25
2022-08-20T09:34:16.365Z,3.00
2022-08-20T09:35:19.477Z,2.00
2022-08-20T09:36:29.248Z,2.50
2022-08-20T09:37:26.879Z,2.50
2022-08-20T09:38:29.942Z,2.00
2022-08-20T09:39:33.259Z,2.00
2022-08-20T09:40:36.516Z,2.00
2022-08-20T09:41:39.708Z,1.50
2022-08-20T09:42:42.878Z,1.75
2022-08-20T09:43:46.058Z,1.50
2022-08-20T09:44:49.239Z,2.00
2022-08-20T09:45:52.598Z,2.00
2022-08-20T09:46:56.117Z,1.50
2022-08-20T09:47:59.542Z,1.50
2022-08-20T09:49:03.566Z,1.50
2022-08-20T09:50:07.003Z,1.25
2022-08-20T09:51:10.482Z,1.00
2022-08-20T09:52:13.970Z,1.50
2022-08-20T09:53:17.465Z,2.00
2022-08-20T09:54:20.820Z,2.50
2022-08-20T09:55:24.205Z,2.50
2022-08-20T09:56:27.413Z,2.00
2022-08-20T09:57:30.902Z,1.75
2022-08-20T09:58:34.046Z,2.00
2022-08-20T09:59:37.389Z,1.25
2022-08-20T10:00:40.550Z,1.50
2022-08-20T10:01:43.890Z,2.00
2022-08-20T10:02:47.120Z,2.00
2022-08-20T10:03:50.321Z,2.00
2022-08-20T10:04:53.799Z,1.50
2022-08-20T10:05:57.282Z,1.00
2022-08-20T10:07:00.766Z,1.50
2022-08-20T10:08:04.051Z,1.00
2022-08-20T10:09:07.437Z,1.00
2022-08-20T10:10:10.947Z,1.00
2022-08-20T10:11:14.250Z,1.00
2022-08-20T10:12:17.596Z,1.00
2022-08-20T10:13:21.188Z,1.25
2022-08-20T10:14:24.592Z,1.00
2022-08-20T10:15:28.194Z,1.00
2022-08-20T10:16:31.246Z,1.50
2022-08-20T10:17:34.633Z,1.25
2022-08-20T10:18:37.713Z,1.25
2022-08-20T10:19:40.905Z,3.50
2022-08-20T10:20:44.177Z,4.50
2022-08-20T10:21:47.461Z,9.00
2022-08-20T10:22:50.654Z,11.25
2022-08-20T10:23:53.929Z,5.50
2022-08-20T10:24:57.213Z,2.50
2022-08-20T10:26:00.506Z,1.75
2022-08-20T10:27:03.880Z,1.00
2022-08-20T10:28:07.078Z,0.50
2022-08-20T10:29:10.249Z,0.75
2022-08-20T10:30:13.662Z,1.00
2022-08-20T10:31:17.043Z,1.50
2022-08-20T10:32:21.045Z,1.00
2022-08-20T10:33:24.620Z,0.50
2022-08-20T10:34:27.793Z,1.00
2022-08-20T10:35:31.082Z,0.75
2022-08-20T10:36:34.268Z,1.00
2022-08-20T10:37:37.517Z,1.50
2022-08-20T10:38:40.526Z,1.50
2022-08-20T10:39:43.745Z,1.00
2022-08-20T10:40:52.286Z,1.00
2022-08-20T10:41:51.263Z,1.50
2022-08-20T10:42:54.475Z,1.60
2022-08-20T10:43:57.861Z,2.25
2022-08-20T10:45:01.254Z,1.25
2022-08-20T10:46:04.605Z,1.00
2022-08-20T10:47:07.922Z,0.25
2022-08-20T10:48:11.323Z,0.50
2022-08-20T10:49:14.739Z,1.00
2022-08-20T10:50:17.987Z,1.50
2022-08-20T10:51:21.354Z,1.50
2022-08-20T10:52:26.034Z,1.50
2022-08-20T10:53:29.382Z,2.00
2022-08-20T10:54:32.547Z,2.50
2022-08-20T10:55:36.153Z,2.25
2022-08-20T10:56:39.539Z,2.00
2022-08-20T10:57:43.546Z,3.00
2022-08-20T10:58:47.123Z,3.75
2022-08-20T10:59:50.331Z,5.20
2022-08-20T11:00:53.402Z,6.50
2022-08-20T11:01:56.634Z,7.00
2022-08-20T11:02:59.956Z,6.00
2022-08-20T11:04:03.235Z,5.50
2022-08-20T11:05:06.432Z,6.00
2022-08-20T11:06:09.706Z,4.00
2022-08-20T11:07:12.878Z,1.50
2022-08-20T11:08:16.179Z,3.00
2022-08-20T11:09:20.450Z,2.75
2022-08-20T11:10:23.655Z,2.00
2022-08-20T11:11:26.836Z,1.50
2022-08-20T11:12:29.916Z,1.50
2022-08-20T11:13:33.405Z,1.25
2022-08-20T11:14:36.573Z,0.50
2022-08-20T11:15:39.766Z,0.20
2022-08-20T11:16:42.952Z,0.00
2022-08-20T11:17:46.084Z,0.60
2022-08-20T11:18:49.271Z,1.00
2022-08-20T11:19:53.496Z,0.50
2022-08-20T11:20:56.806Z,0.00
2022-08-20T11:22:00.054Z,0.50
2022-08-20T11:23:03.075Z,1.00
2022-08-20T11:24:06.586Z,1.00
2022-08-20T11:25:10.041Z,0.25
2022-08-20T11:26:13.234Z,0.00
2022-08-20T11:27:16.607Z,0.00
2022-08-20T11:28:31.083Z,0.50
2022-08-20T11:29:24.751Z,0.50
2022-08-20T11:30:28.107Z,0.00
2022-08-20T11:31:31.504Z,0.50
2022-08-20T11:32:34.668Z,1.00
2022-08-20T11:33:37.963Z,1.00
2022-08-20T11:34:41.348Z,1.00
2022-08-20T11:35:49.540Z,0.50
2022-08-20T11:36:48.836Z,0.00
2022-08-20T11:37:52.285Z,0.00
2022-08-20T11:38:55.716Z,0.00
2022-08-20T11:39:59.249Z,0.00
2022-08-20T11:41:02.566Z,0.00
2022-08-20T11:42:05.862Z,0.00
2022-08-20T11:43:17.313Z,0.50
2022-08-20T11:44:20.766Z,0.25
2022-08-20T11:45:18.587Z,0.00
2022-08-20T11:46:25.344Z,0.00
2022-08-20T11:47:26.897Z,0.50
2022-08-20T11:48:30.392Z,0.25
2022-08-20T11:49:33.472Z,0.00
2022-08-20T11:50:36.753Z,0.00
2022-08-20T11:51:49.573Z,0.00
2022-08-20T11:52:44.656Z,0.00
2022-08-20T11:53:48.881Z,0.00
2022-08-20T11:54:55.933Z,0.00
2022-08-20T11:55:59.383Z,0.00
2022-08-20T11:57:02.910Z,0.00
2022-08-20T11:58:06.400Z,0.00
2022-08-20T11:59:09.992Z,0.00
2022-08-20T12:00:14.311Z,0.00
2022-08-20T12:01:19.225Z,0.00
2022-08-20T12:02:22.775Z,0.00
2022-08-20T12:03:26.304Z,0.00
2022-08-20T12:04:29.588Z,0.00
2022-08-20T12:05:34.307Z,0.00
2022-08-20T12:06:37.588Z,0.00
2022-08-20T12:07:40.974Z,0.00
2022-08-20T12:08:44.877Z,0.00
2022-08-20T12:09:50.904Z,0.00
2022-08-20T12:10:52.465Z,0.00
2022-08-20T12:11:55.951Z,0.00
2022-08-20T12:13:00.153Z,0.00
2022-08-20T12:14:04.570Z,0.00
2022-08-20T12:15:08.056Z,0.00
2022-08-20T12:16:11.757Z,0.00
2022-08-20T12:17:15.117Z,0.00
2022-08-20T12:18:18.107Z,0.00
2022-08-20T12:19:21.102Z,0.00
2022-08-20T12:20:23.785Z,0.00
2022-08-20T12:21:29.663Z,0.00
2022-08-20T12:22:30.598Z,0.00
2022-08-20T12:23:33.305Z,0.00
2022-08-20T12:24:37.191Z,0.00
2022-08-20T12:25:39.806Z,0.00
2022-08-20T12:26:42.505Z,0.00
2022-08-20T12:27:45.260Z,0.00
2022-08-20T12:28:47.869Z,0.00
2022-08-20T12:29:50.495Z,0.00
2022-08-20T12:30:54.416Z,0.00
2022-08-20T12:31:57.307Z,0.00
2022-08-20T12:33:00.025Z,0.00
2022-08-20T12:34:02.878Z,0.00
2022-08-20T12:35:05.905Z,0.50
2022-08-20T12:36:08.591Z,0.50
2022-08-20T12:37:15.784Z,0.00
2022-08-20T12:38:15.959Z,0.50
2022-08-20T12:39:18.872Z,1.00
2022-08-20T12:40:30.631Z,0.25
2022-08-20T12:41:26.008Z,0.00
2022-08-20T12:42:29.148Z,0.00
2022-08-20T12:43:31.859Z,0.00
2022-08-20T12:44:34.431Z,0.00
2022-08-20T12:45:37.043Z,0.00
2022-08-20T12:46:39.740Z,0.00
2022-08-20T12:47:44.978Z,0.00
2022-08-20T12:48:46.508Z,0.00
2022-08-20T12:49:49.247Z,0.00
2022-08-20T12:50:51.918Z,0.00
2022-08-20T12:51:54.611Z,0.00
2022-08-20T12:52:57.534Z,0.00
2022-08-20T12:54:00.440Z,0.00
2022-08-20T12:55:03.117Z,0.00
2022-08-20T12:56:05.869Z,0.00
2022-08-20T12:57:08.436Z,0.00
2022-08-20T12:58:11.074Z,0.00
2022-08-20T12:59:13.859Z,0.00
2022-08-20T13:00:16.679Z,0.00
2022-08-20T13:01:20.601Z,0.00
2022-08-20T13:02:23.381Z,0.00
2022-08-20T13:03:26.123Z,0.00
2022-08-20T13:04:29.490Z,0.00
2022-08-20T13:05:32.173Z,0.00
2022-08-20T13:06:34.842Z,0.00
2022-08-20T13:07:37.490Z,0.00
2022-08-20T13:08:40.137Z,0.00
2022-08-20T13:09:42.794Z,0.00
2022-08-20T13:10:45.746Z,0.00
2022-08-20T13:11:48.607Z,0.00
2022-08-20T13:12:51.368Z,0.00
2022-08-20T13:13:54.085Z,0.00
2022-08-20T13:14:56.749Z,0.00
2022-08-20T13:15:59.327Z,0.00
2022-08-20T13:17:02.024Z,0.00
2022-08-20T13:18:04.624Z,0.00
2022-08-20T13:19:07.266Z,0.00
2022-08-20T13:20:09.961Z,0.00
2022-08-20T13:21:12.677Z,0.00
2022-08-20T13:22:15.308Z,0.00
2022-08-20T13:23:18.142Z,0.00
2022-08-20T13:24:20.985Z,0.00
2022-08-20T13:25:23.944Z,0.00
2022-08-20T13:26:28.012Z,0.00
2022-08-20T13:27:30.814Z,0.00
2022-08-20T13:28:33.374Z,0.50
2022-08-20T13:29:36.207Z,0.00
2022-08-20T13:30:38.987Z,0.50
2022-08-20T13:31:41.802Z,0.00
2022-08-20T13:32:44.505Z,0.00
2022-08-20T13:33:47.248Z,0.00
2022-08-20T13:34:49.972Z,0.00
2022-08-20T13:35:52.753Z,0.00
2022-08-20T13:36:55.483Z,0.00
2022-08-20T13:37:58.208Z,0.50
2022-08-20T13:39:00.897Z,0.50
2022-08-20T13:40:03.770Z,0.50
2022-08-20T13:41:06.792Z,1.00
2022-08-20T13:42:09.507Z,0.50
2022-08-20T13:43:12.301Z,0.00
2022-08-20T13:44:15.000Z,0.00
2022-08-20T13:45:17.804Z,0.00
2022-08-20T13:46:20.786Z,0.00
2022-08-20T13:47:23.661Z,0.00
2022-08-20T13:48:26.568Z,0.50
2022-08-20T13:49:33.255Z,0.00
2022-08-20T13:50:33.556Z,0.00
2022-08-20T13:51:36.500Z,0.00
2022-08-20T13:52:39.198Z,0.00
2022-08-20T13:53:43.339Z,0.00
2022-08-20T13:54:50.040Z,0.00
2022-08-20T13:55:53.192Z,0.00
2022-08-20T13:56:56.127Z,0.00
2022-08-20T13:57:59.009Z,0.25
2022-08-20T13:59:01.893Z,0.50
2022-08-20T14:00:04.800Z,0.25
2022-08-20T14:01:07.736Z,0.50
2022-08-20T14:02:10.633Z,1.00
2022-08-20T14:03:13.862Z,1.00
2022-08-20T14:04:17.621Z,1.00
2022-08-20T14:05:20.512Z,1.00
2022-08-20T14:06:23.389Z,0.50
2022-08-20T14:07:31.454Z,0.00
2022-08-20T14:08:30.577Z,0.50
2022-08-20T14:09:33.464Z,1.00
2022-08-20T14:10:36.083Z,0.50
2022-08-20T14:11:38.887Z,0.50